sensor_id;sensor_type;location;lat;lon;timestamp;pressure;altitude;pressure_sealevel;temperature;humidity
45327;BME280;31062;49.678;24.560;2022-10-15T00:01:12;98556.13;;;7.96;72.36
45327;BME280;31062;49.678;24.560;2022-10-15T00:03:41;98415.97;;;6.97;72.44
45327;BME280;31062;49.678;24.560;2022-10-15T00:06:11;98360.78;;;6.75;71.99
45327;BME280;31062;49.678;24.560;2022-10-15T00:08:39;98545.47;;;8.15;72.36
45327;BME280;31062;49.678;24.560;2022-10-15T00:11:12;98430.38;;;7.34;72.15
45327;BME280;31062;49.678;24.560;2022-10-15T00:13:40;98561.69;;;8.26;71.94
45327;BME280;31062;49.678;24.560;2022-10-15T00:16:10;98346.88;;;6.95;71.81
45327;BME280;31062;49.678;24.560;2022-10-15T00:18:38;98353.88;;;6.96;72.71
45327;BME280;31062;49.678;24.560;2022-10-15T00:21:09;98527.78;;;8.10;73.46
45327;BME280;31062;49.678;24.560;2022-10-15T00:23:37;98495.19;;;7.94;74.26
45327;BME280;31062;49.678;24.560;2022-10-15T00:26:09;98496.13;;;7.89;74.89
45327;BME280;31062;49.678;24.560;2022-10-15T00:28:37;98499.25;;;7.62;75.25
45327;BME280;31062;49.678;24.560;2022-10-15T00:31:09;98341.69;;;6.77;75.92
45327;BME280;31062;49.678;24.560;2022-10-15T00:33:38;98533.31;;;8.03;76.71
45327;BME280;31062;49.678;24.560;2022-10-15T00:36:26;98533.13;;;8.01;77.44
45327;BME280;31062;49.678;24.560;2022-10-15T00:38:54;98527.25;;;7.97;77.82
45327;BME280;31062;49.678;24.560;2022-10-15T00:41:25;98469.00;;;7.34;79.06
45327;BME280;31062;49.678;24.560;2022-10-15T00:43:57;98512.84;;;7.75;79.08
45327;BME280;31062;49.678;24.560;2022-10-15T00:51:53;98525.38;;;7.84;79.89
45327;BME280;31062;49.678;24.560;2022-10-15T00:54:22;98514.31;;;7.76;80.51
45327;BME280;31062;49.678;24.560;2022-10-15T00:56:50;98389.91;;;7.06;80.56
45327;BME280;31062;49.678;24.560;2022-10-15T00:59:19;98364.91;;;6.96;80.61
45327;BME280;31062;49.678;24.560;2022-10-15T01:01:49;98490.25;;;7.85;80.65
45327;BME280;31062;49.678;24.560;2022-10-15T01:04:16;98369.66;;;7.04;80.53
45327;BME280;31062;49.678;24.560;2022-10-15T01:06:44;98523.91;;;8.06;80.10
45327;BME280;31062;49.678;24.560;2022-10-15T01:09:12;98335.81;;;6.80;80.48
45327;BME280;31062;49.678;24.560;2022-10-15T01:11:47;98489.50;;;7.92;80.58
45327;BME280;31062;49.678;24.560;2022-10-15T01:17:37;98538.28;;;8.12;78.63
45327;BME280;31062;49.678;24.560;2022-10-15T01:23:29;98543.44;;;8.23;76.93
45327;BME280;31062;49.678;24.560;2022-10-15T01:34:34;98514.34;;;8.07;74.57
45327;BME280;31062;49.678;24.560;2022-10-15T01:39:51;98464.47;;;7.59;75.31
45327;BME280;31062;49.678;24.560;2022-10-15T01:42:28;98503.66;;;7.80;76.97
45327;BME280;31062;49.678;24.560;2022-10-15T01:45:05;98499.97;;;7.70;78.47
45327;BME280;31062;49.678;24.560;2022-10-15T01:47:57;98432.56;;;7.13;78.91
45327;BME280;31062;49.678;24.560;2022-10-15T01:50:28;98499.97;;;7.70;79.75
45327;BME280;31062;49.678;24.560;2022-10-15T01:52:58;98500.34;;;7.67;79.89
45327;BME280;31062;49.678;24.560;2022-10-15T01:55:27;98315.16;;;6.43;80.05
45327;BME280;31062;49.678;24.560;2022-10-15T01:57:58;98508.06;;;7.68;80.35
45327;BME280;31062;49.678;24.560;2022-10-15T02:00:26;98321.38;;;6.44;80.97
45327;BME280;31062;49.678;24.560;2022-10-15T02:02:58;98471.09;;;7.56;79.97
45327;BME280;31062;49.678;24.560;2022-10-15T02:05:29;98549.69;;;7.86;79.28
45327;BME280;31062;49.678;24.560;2022-10-15T02:15:55;98534.22;;;7.83;75.97
45327;BME280;31062;49.678;24.560;2022-10-15T02:21:52;98480.84;;;7.65;75.10
45327;BME280;31062;49.678;24.560;2022-10-15T02:24:32;98439.22;;;7.32;74.78
45327;BME280;31062;49.678;24.560;2022-10-15T02:27:05;98311.28;;;6.39;74.92
45327;BME280;31062;49.678;24.560;2022-10-15T02:29:35;98336.84;;;6.47;74.89
45327;BME280;31062;49.678;24.560;2022-10-15T02:32:05;98506.97;;;7.71;74.90
45327;BME280;31062;49.678;24.560;2022-10-15T02:34:32;98307.94;;;6.33;74.64
45327;BME280;31062;49.678;24.560;2022-10-15T02:37:03;98471.59;;;7.47;74.66
45327;BME280;31062;49.678;24.560;2022-10-15T02:39:32;98504.41;;;7.73;74.11
45327;BME280;31062;49.678;24.560;2022-10-15T02:42:00;98297.50;;;6.39;73.88
45327;BME280;31062;49.678;24.560;2022-10-15T02:44:28;98499.41;;;7.64;74.25
45327;BME280;31062;49.678;24.560;2022-10-15T02:46:56;98304.44;;;6.25;74.78
45327;BME280;31062;49.678;24.560;2022-10-15T02:49:24;98329.06;;;6.30;75.54
45327;BME280;31062;49.678;24.560;2022-10-15T02:51:51;98315.78;;;6.13;75.89
45327;BME280;31062;49.678;24.560;2022-10-15T02:54:19;98503.94;;;7.39;76.80
45327;BME280;31062;49.678;24.560;2022-10-15T02:56:47;98399.66;;;6.56;77.09
45327;BME280;31062;49.678;24.560;2022-10-15T02:59:16;98303.25;;;6.05;77.69
45327;BME280;31062;49.678;24.560;2022-10-15T03:01:45;98319.81;;;6.12;78.19
45327;BME280;31062;49.678;24.560;2022-10-15T03:04:13;98499.91;;;7.40;78.52
45327;BME280;31062;49.678;24.560;2022-10-15T03:06:40;98448.00;;;7.16;78.36
45327;BME280;31062;49.678;24.560;2022-10-15T03:09:07;98372.09;;;6.56;78.33
45327;BME280;31062;49.678;24.560;2022-10-15T03:11:37;98303.66;;;6.17;78.15
45327;BME280;31062;49.678;24.560;2022-10-15T03:14:04;98308.28;;;6.22;77.99
45327;BME280;31062;49.678;24.560;2022-10-15T03:16:33;98384.69;;;6.72;78.19
45327;BME280;31062;49.678;24.560;2022-10-15T03:19:00;98489.63;;;7.48;78.30
45327;BME280;31062;49.678;24.560;2022-10-15T03:21:27;98309.38;;;6.19;78.08
45327;BME280;31062;49.678;24.560;2022-10-15T03:24:05;98133.50;;;5.05;78.20
45327;BME280;31062;49.678;24.560;2022-10-15T03:26:32;98510.03;;;7.45;78.25
45327;BME280;31062;49.678;24.560;2022-10-15T03:28:59;98299.25;;;6.13;77.47
45327;BME280;31062;49.678;24.560;2022-10-15T03:31:52;98461.53;;;6.98;77.64
45327;BME280;31062;49.678;24.560;2022-10-15T03:34:20;98319.97;;;6.07;77.61
45327;BME280;31062;49.678;24.560;2022-10-15T03:36:47;98473.13;;;7.05;77.61
45327;BME280;31062;49.678;24.560;2022-10-15T03:39:14;98490.09;;;7.09;77.52
45327;BME280;31062;49.678;24.560;2022-10-15T03:41:41;98297.16;;;5.70;78.45
45327;BME280;31062;49.678;24.560;2022-10-15T03:44:13;98510.78;;;6.94;79.71
45327;BME280;31062;49.678;24.560;2022-10-15T03:46:44;98385.56;;;6.24;80.54
45327;BME280;31062;49.678;24.560;2022-10-15T03:49:11;98486.63;;;6.80;80.99
45327;BME280;31062;49.678;24.560;2022-10-15T03:51:38;98455.03;;;6.73;81.95
45327;BME280;31062;49.678;24.560;2022-10-15T03:54:10;98326.31;;;5.94;80.68
45327;BME280;31062;49.678;24.560;2022-10-15T03:56:44;98304.59;;;5.83;79.56
45327;BME280;31062;49.678;24.560;2022-10-15T03:59:22;98339.25;;;6.14;78.67
45327;BME280;31062;49.678;24.560;2022-10-15T04:01:56;98419.91;;;6.74;77.72
45327;BME280;31062;49.678;24.560;2022-10-15T04:04:23;98452.94;;;7.02;77.84
45327;BME280;31062;49.678;24.560;2022-10-15T04:06:50;98523.41;;;7.26;77.47
45327;BME280;31062;49.678;24.560;2022-10-15T04:09:18;98500.63;;;7.33;76.85
45327;BME280;31062;49.678;24.560;2022-10-15T04:11:45;98497.84;;;7.33;77.18
45327;BME280;31062;49.678;24.560;2022-10-15T04:14:13;98503.19;;;7.31;77.33
45327;BME280;31062;49.678;24.560;2022-10-15T04:16:41;98376.47;;;6.44;77.47
45327;BME280;31062;49.678;24.560;2022-10-15T04:19:13;98495.25;;;7.20;77.76
45327;BME280;31062;49.678;24.560;2022-10-15T04:21:42;98314.63;;;6.01;77.84
45327;BME280;31062;49.678;24.560;2022-10-15T04:24:23;98497.69;;;7.31;78.55
45327;BME280;31062;49.678;24.560;2022-10-15T04:26:50;98471.88;;;7.06;78.68
45327;BME280;31062;49.678;24.560;2022-10-15T04:29:18;98277.94;;;5.78;78.82
45327;BME280;31062;49.678;24.560;2022-10-15T04:31:45;98511.66;;;7.33;79.20
45327;BME280;31062;49.678;24.560;2022-10-15T04:34:12;98314.63;;;6.01;79.25
45327;BME280;31062;49.678;24.560;2022-10-15T04:36:38;98294.38;;;5.91;79.29
45327;BME280;31062;49.678;24.560;2022-10-15T04:39:11;98333.06;;;6.22;79.43
45327;BME280;31062;49.678;24.560;2022-10-15T04:41:42;98380.56;;;6.58;80.02
45327;BME280;31062;49.678;24.560;2022-10-15T04:44:14;98504.13;;;7.41;80.19
45327;BME280;31062;49.678;24.560;2022-10-15T04:46:47;98492.38;;;7.41;80.13
45327;BME280;31062;49.678;24.560;2022-10-15T04:49:40;98528.25;;;7.48;80.06
45327;BME280;31062;49.678;24.560;2022-10-15T04:52:23;98505.81;;;7.52;80.36
45327;BME280;31062;49.678;24.560;2022-10-15T04:55:02;98501.03;;;7.52;80.61
45327;BME280;31062;49.678;24.560;2022-10-15T04:57:30;98484.13;;;7.48;80.98
45327;BME280;31062;49.678;24.560;2022-10-15T04:59:57;98403.66;;;6.91;81.09
45327;BME280;31062;49.678;24.560;2022-10-15T05:02:45;98415.78;;;7.03;81.57
45327;BME280;31062;49.678;24.560;2022-10-15T05:05:23;98485.97;;;7.61;81.34
45327;BME280;31062;49.678;24.560;2022-10-15T05:08:01;98507.31;;;7.75;81.51
45327;BME280;31062;49.678;24.560;2022-10-15T05:10:33;98303.22;;;6.41;81.81
45327;BME280;31062;49.678;24.560;2022-10-15T05:13:04;98420.28;;;7.29;81.64
45327;BME280;31062;49.678;24.560;2022-10-15T05:15:33;98510.66;;;7.89;81.95
45327;BME280;31062;49.678;24.560;2022-10-15T05:18:04;98316.13;;;6.61;81.69
45327;BME280;31062;49.678;24.560;2022-10-15T05:20:40;98497.41;;;7.88;82.18
45327;BME280;31062;49.678;24.560;2022-10-15T05:23:12;98319.59;;;6.62;82.17
45327;BME280;31062;49.678;24.560;2022-10-15T05:25:48;98502.56;;;7.99;82.29
45327;BME280;31062;49.678;24.560;2022-10-15T05:28:22;98448.09;;;7.61;82.37
45327;BME280;31062;49.678;24.560;2022-10-15T05:30:49;98511.03;;;8.01;81.79
45327;BME280;31062;49.678;24.560;2022-10-15T05:33:16;98486.38;;;7.88;82.45
45327;BME280;31062;49.678;24.560;2022-10-15T05:35:44;98303.81;;;6.62;82.11
45327;BME280;31062;49.678;24.560;2022-10-15T05:38:10;98524.47;;;8.04;82.54
45327;BME280;31062;49.678;24.560;2022-10-15T05:40:39;98505.88;;;8.05;83.33
45327;BME280;31062;49.678;24.560;2022-10-15T05:43:15;98514.34;;;8.07;83.44
45327;BME280;31062;49.678;24.560;2022-10-15T05:45:42;98429.50;;;7.54;83.45
45327;BME280;31062;49.678;24.560;2022-10-15T05:48:09;98480.09;;;7.87;83.86
45327;BME280;31062;49.678;24.560;2022-10-15T05:50:36;98509.19;;;8.11;83.79
45327;BME280;31062;49.678;24.560;2022-10-15T05:53:07;98329.97;;;6.91;83.90
45327;BME280;31062;49.678;24.560;2022-10-15T05:55:43;98416.25;;;7.45;85.00
45327;BME280;31062;49.678;24.560;2022-10-15T05:58:10;98507.19;;;8.04;84.63
45327;BME280;31062;49.678;24.560;2022-10-15T06:00:38;98319.28;;;6.80;85.63
45327;BME280;31062;49.678;24.560;2022-10-15T06:03:11;98547.84;;;8.18;85.71
45327;BME280;31062;49.678;24.560;2022-10-15T06:05:39;98506.63;;;7.90;85.85
45327;BME280;31062;49.678;24.560;2022-10-15T06:08:06;98489.13;;;7.95;86.52
45327;BME280;31062;49.678;24.560;2022-10-15T06:10:36;98412.41;;;7.48;86.34
45327;BME280;31062;49.678;24.560;2022-10-15T06:13:03;98375.78;;;7.25;86.20
45327;BME280;31062;49.678;24.560;2022-10-15T06:15:32;98521.00;;;8.34;86.73
45327;BME280;31062;49.678;24.560;2022-10-15T06:18:00;98386.25;;;7.34;87.05
45327;BME280;31062;49.678;24.560;2022-10-15T06:20:27;98323.72;;;6.98;87.06
45327;BME280;31062;49.678;24.560;2022-10-15T06:22:58;98489.69;;;8.09;87.16
45327;BME280;31062;49.678;24.560;2022-10-15T06:25:26;98367.88;;;7.29;86.82
45327;BME280;31062;49.678;24.560;2022-10-15T06:27:53;98538.66;;;8.46;87.15
45327;BME280;31062;49.678;24.560;2022-10-15T06:30:24;98556.16;;;8.56;87.12
45327;BME280;31062;49.678;24.560;2022-10-15T06:32:52;98547.88;;;8.56;87.65
45327;BME280;31062;49.678;24.560;2022-10-15T06:35:21;98543.44;;;8.61;87.84
45327;BME280;31062;49.678;24.560;2022-10-15T06:37:48;98398.03;;;7.57;87.70
45327;BME280;31062;49.678;24.560;2022-10-15T06:40:16;98559.63;;;8.65;87.77
45327;BME280;31062;49.678;24.560;2022-10-15T06:42:47;98553.75;;;8.60;88.05
45327;BME280;31062;49.678;24.560;2022-10-15T06:45:21;98557.44;;;8.71;87.86
45327;BME280;31062;49.678;24.560;2022-10-15T06:47:49;98564.44;;;8.72;88.15
45327;BME280;31062;49.678;24.560;2022-10-15T06:50:22;98555.22;;;8.69;88.15
45327;BME280;31062;49.678;24.560;2022-10-15T06:52:54;98528.00;;;8.50;88.00
45327;BME280;31062;49.678;24.560;2022-10-15T06:55:27;98467.59;;;8.09;87.99
45327;BME280;31062;49.678;24.560;2022-10-15T06:57:57;98561.84;;;8.74;88.20
45327;BME280;31062;49.678;24.560;2022-10-15T07:00:28;98592.06;;;8.72;88.12
45327;BME280;31062;49.678;24.560;2022-10-15T07:02:56;98557.81;;;8.75;88.15
45327;BME280;31062;49.678;24.560;2022-10-15T07:05:29;98521.72;;;8.42;88.02
45327;BME280;31062;49.678;24.560;2022-10-15T07:07:56;98564.97;;;8.78;88.19
45327;BME280;31062;49.678;24.560;2022-10-15T07:10:24;98375.63;;;7.53;87.89
45327;BME280;31062;49.678;24.560;2022-10-15T07:12:53;98519.88;;;8.52;87.88
45327;BME280;31062;49.678;24.560;2022-10-15T07:15:21;98473.84;;;8.25;88.53
45327;BME280;31062;49.678;24.560;2022-10-15T07:17:49;98379.28;;;7.63;88.64
45327;BME280;31062;49.678;24.560;2022-10-15T07:20:17;98551.00;;;8.68;88.47
45327;BME280;31062;49.678;24.560;2022-10-15T07:22:49;98417.91;;;7.94;88.29
45327;BME280;31062;49.678;24.560;2022-10-15T07:25:16;98569.53;;;8.98;87.67
45327;BME280;31062;49.678;24.560;2022-10-15T07:27:43;98571.38;;;9.03;88.12
45327;BME280;31062;49.678;24.560;2022-10-15T07:30:10;98568.41;;;9.01;87.40
45327;BME280;31062;49.678;24.560;2022-10-15T07:32:38;98370.09;;;7.68;86.92
45327;BME280;31062;49.678;24.560;2022-10-15T07:35:06;98569.53;;;9.06;87.50
45327;BME280;31062;49.678;24.560;2022-10-15T07:37:34;98568.38;;;9.16;87.48
45327;BME280;31062;49.678;24.560;2022-10-15T07:40:01;98417.88;;;8.16;87.58
45327;BME280;31062;49.678;24.560;2022-10-15T07:42:27;98569.81;;;9.25;87.74
45327;BME280;31062;49.678;24.560;2022-10-15T07:44:54;98568.16;;;9.29;87.32
45327;BME280;31062;49.678;24.560;2022-10-15T07:47:22;98456.69;;;8.56;87.34
45327;BME280;31062;49.678;24.560;2022-10-15T07:49:49;98501.91;;;8.99;87.82
45327;BME280;31062;49.678;24.560;2022-10-15T07:52:16;98529.66;;;9.16;87.03
45327;BME280;31062;49.678;24.560;2022-10-15T07:54:43;98398.53;;;8.39;86.28
45327;BME280;31062;49.678;24.560;2022-10-15T07:57:16;98429.06;;;8.56;86.12
45327;BME280;31062;49.678;24.560;2022-10-15T07:59:43;98515.06;;;9.23;86.58
45327;BME280;31062;49.678;24.560;2022-10-15T08:02:14;98398.28;;;8.52;86.25
45327;BME280;31062;49.678;24.560;2022-10-15T08:04:42;98568.16;;;9.69;86.41
45327;BME280;31062;49.678;24.560;2022-10-15T08:07:10;98584.97;;;9.96;86.74
45327;BME280;31062;49.678;24.560;2022-10-15T08:09:38;98566.28;;;9.72;85.88
45327;BME280;31062;49.678;24.560;2022-10-15T08:12:06;98582.28;;;10.13;85.96
45327;BME280;31062;49.678;24.560;2022-10-15T08:14:34;98420.31;;;9.15;85.95
45327;BME280;31062;49.678;24.560;2022-10-15T08:17:05;98517.63;;;9.94;84.80
45327;BME280;31062;49.678;24.560;2022-10-15T08:19:32;98397.56;;;9.24;85.07
45327;BME280;31062;49.678;24.560;2022-10-15T08:21:59;98405.22;;;9.41;84.27
45327;BME280;31062;49.678;24.560;2022-10-15T08:24:26;98538.19;;;10.33;84.23
45327;BME280;31062;49.678;24.560;2022-10-15T08:26:53;98583.47;;;10.77;83.64
45327;BME280;31062;49.678;24.560;2022-10-15T08:29:20;98550.19;;;10.77;82.55
45327;BME280;31062;49.678;24.560;2022-10-15T08:31:47;98545.25;;;10.68;83.35
45327;BME280;31062;49.678;24.560;2022-10-15T08:34:19;98583.16;;;11.25;82.99
45327;BME280;31062;49.678;24.560;2022-10-15T08:36:46;98548.13;;;11.12;81.82
45327;BME280;31062;49.678;24.560;2022-10-15T08:39:13;98535.66;;;11.03;81.30
45327;BME280;31062;49.678;24.560;2022-10-15T08:41:45;98587.91;;;11.59;81.36
45327;BME280;31062;49.678;24.560;2022-10-15T08:44:38;98579.97;;;11.72;80.74
45327;BME280;31062;49.678;24.560;2022-10-15T08:49:55;98601.69;;;11.83;80.16
45327;BME280;31062;49.678;24.560;2022-10-15T08:52:45;98514.69;;;11.54;79.23
45327;BME280;31062;49.678;24.560;2022-10-15T08:55:18;98574.06;;;12.12;78.95
45327;BME280;31062;49.678;24.560;2022-10-15T08:58:02;98612.13;;;12.19;78.83
45327;BME280;31062;49.678;24.560;2022-10-15T09:00:41;98572.75;;;12.13;78.47
45327;BME280;31062;49.678;24.560;2022-10-15T09:03:39;98563.50;;;12.11;78.18
45327;BME280;31062;49.678;24.560;2022-10-15T09:06:18;98420.09;;;11.16;78.25
45327;BME280;31062;49.678;24.560;2022-10-15T09:14:42;98559.69;;;12.43;77.67
45327;BME280;31062;49.678;24.560;2022-10-15T09:17:24;98587.41;;;12.69;77.34
45327;BME280;31062;49.678;24.560;2022-10-15T09:19:53;98588.00;;;12.78;77.56
45327;BME280;31062;49.678;24.560;2022-10-15T09:22:29;98590.66;;;12.85;77.51
45327;BME280;31062;49.678;24.560;2022-10-15T09:24:57;98586.56;;;12.96;77.37
45327;BME280;31062;49.678;24.560;2022-10-15T09:27:32;98598.59;;;13.08;76.70
45327;BME280;31062;49.678;24.560;2022-10-15T09:30:02;98602.00;;;13.16;76.84
45327;BME280;31062;49.678;24.560;2022-10-15T09:32:36;98559.06;;;13.09;76.85
45327;BME280;31062;49.678;24.560;2022-10-15T09:35:17;98529.31;;;13.02;75.06
45327;BME280;31062;49.678;24.560;2022-10-15T09:43:33;98583.09;;;13.63;73.01
45327;BME280;31062;49.678;24.560;2022-10-15T09:46:02;98437.34;;;12.72;72.27
45327;BME280;31062;49.678;24.560;2022-10-15T09:48:40;98612.34;;;13.83;72.95
45327;BME280;31062;49.678;24.560;2022-10-15T09:51:33;98594.16;;;13.92;72.49
45327;BME280;31062;49.678;24.560;2022-10-15T09:56:51;98505.56;;;13.49;71.19
45327;BME280;31062;49.678;24.560;2022-10-15T09:59:20;98543.47;;;13.74;72.04
45327;BME280;31062;49.678;24.560;2022-10-15T10:04:30;98541.34;;;13.94;69.76
45327;BME280;31062;49.678;24.560;2022-10-15T10:07:02;98564.28;;;14.23;69.86
45327;BME280;31062;49.678;24.560;2022-10-15T10:09:37;98475.44;;;13.67;69.77
45327;BME280;31062;49.678;24.560;2022-10-15T10:12:18;98434.19;;;13.44;69.08
45327;BME280;31062;49.678;24.560;2022-10-15T10:14:55;98586.59;;;14.54;69.37
45327;BME280;31062;49.678;24.560;2022-10-15T10:17:25;98608.16;;;14.63;69.76
45327;BME280;31062;49.678;24.560;2022-10-15T10:22:41;98590.91;;;14.76;70.26
45327;BME280;31062;49.678;24.560;2022-10-15T10:25:33;98581.00;;;14.85;69.44
45327;BME280;31062;49.678;24.560;2022-10-15T10:35:58;98476.47;;;14.55;67.12
45327;BME280;31062;49.678;24.560;2022-10-15T10:38:36;98560.59;;;15.25;66.99
45327;BME280;31062;49.678;24.560;2022-10-15T10:41:07;98586.22;;;15.33;67.19
45327;BME280;31062;49.678;24.560;2022-10-15T10:43:40;98583.97;;;15.41;67.33
45327;BME280;31062;49.678;24.560;2022-10-15T10:46:18;98548.69;;;15.24;66.65
45327;BME280;31062;49.678;24.560;2022-10-15T10:48:49;98506.06;;;15.02;65.97
45327;BME280;31062;49.678;24.560;2022-10-15T10:51:25;98572.25;;;15.54;64.74
45327;BME280;31062;49.678;24.560;2022-10-15T10:54:08;98413.13;;;14.46;64.88
45327;BME280;31062;49.678;24.560;2022-10-15T10:56:43;98578.22;;;15.60;64.18
45327;BME280;31062;49.678;24.560;2022-10-15T10:59:33;98572.16;;;15.64;63.78
45327;BME280;31062;49.678;24.560;2022-10-15T11:02:10;98524.78;;;15.33;64.45
45327;BME280;31062;49.678;24.560;2022-10-15T11:04:39;98544.31;;;15.54;62.41
45327;BME280;31062;49.678;24.560;2022-10-15T11:13:10;98582.56;;;15.84;62.97
45327;BME280;31062;49.678;24.560;2022-10-15T11:15:58;98534.00;;;15.68;62.49
45327;BME280;31062;49.678;24.560;2022-10-15T11:18:39;98530.97;;;15.64;61.36
45327;BME280;31062;49.678;24.560;2022-10-15T11:26:55;98560.09;;;16.17;59.26
45327;BME280;31062;49.678;24.560;2022-10-15T11:38:40;98548.66;;;16.37;57.68
45327;BME280;31062;49.678;24.560;2022-10-15T11:54:44;98492.72;;;16.02;55.46
45327;BME280;31062;49.678;24.560;2022-10-15T11:57:18;98462.81;;;15.92;55.60
45327;BME280;31062;49.678;24.560;2022-10-15T11:59:53;98397.41;;;15.51;55.46
45327;BME280;31062;49.678;24.560;2022-10-15T12:02:34;98579.78;;;16.54;54.95
45327;BME280;31062;49.678;24.560;2022-10-15T12:05:07;98535.50;;;16.51;54.04
45327;BME280;31062;49.678;24.560;2022-10-15T12:07:41;98522.22;;;16.51;54.30
45327;BME280;31062;49.678;24.560;2022-10-15T12:10:19;98550.72;;;16.59;55.12
45327;BME280;31062;49.678;24.560;2022-10-15T12:13:00;98534.06;;;16.61;54.94
45327;BME280;31062;49.678;24.560;2022-10-15T12:15:53;98535.50;;;16.62;55.14
45327;BME280;31062;49.678;24.560;2022-10-15T12:18:36;98526.03;;;16.67;54.67
45327;BME280;31062;49.678;24.560;2022-10-15T12:24:05;98496.94;;;16.49;53.33
45327;BME280;31062;49.678;24.560;2022-10-15T12:26:51;98524.19;;;16.72;52.32
45327;BME280;31062;49.678;24.560;2022-10-15T12:29:20;98344.22;;;15.49;52.72
45327;BME280;31062;49.678;24.560;2022-10-15T12:31:54;98396.69;;;15.85;52.52
45327;BME280;31062;49.678;24.560;2022-10-15T12:37:04;98391.47;;;15.91;53.60
45327;BME280;31062;49.678;24.560;2022-10-15T12:39:31;98494.16;;;16.61;53.96
45327;BME280;31062;49.678;24.560;2022-10-15T12:42:29;98505.81;;;16.69;54.13
45327;BME280;31062;49.678;24.560;2022-10-15T12:44:58;98510.91;;;16.72;54.13
45327;BME280;31062;49.678;24.560;2022-10-15T12:50:17;98528.16;;;16.81;55.81
45327;BME280;31062;49.678;24.560;2022-10-15T12:55:35;98441.03;;;16.26;55.56
45327;BME280;31062;49.678;24.560;2022-10-15T12:58:31;98508.56;;;16.81;56.27
45327;BME280;31062;49.678;24.560;2022-10-15T13:11:48;98517.66;;;16.93;54.65
45327;BME280;31062;49.678;24.560;2022-10-15T13:14:41;98364.38;;;15.82;53.47
45327;BME280;31062;49.678;24.560;2022-10-15T13:17:21;98511.72;;;16.87;54.05
45327;BME280;31062;49.678;24.560;2022-10-15T13:19:57;98513.31;;;16.90;54.05
45327;BME280;31062;49.678;24.560;2022-10-15T13:22:28;98518.91;;;16.90;53.96
45327;BME280;31062;49.678;24.560;2022-10-15T13:24:56;98477.59;;;16.65;54.02
45327;BME280;31062;49.678;24.560;2022-10-15T13:30:02;98513.19;;;16.88;52.35
45327;BME280;31062;49.678;24.560;2022-10-15T13:32:32;98362.69;;;15.77;52.21
45327;BME280;31062;49.678;24.560;2022-10-15T13:35:08;98374.81;;;15.82;52.24
45327;BME280;31062;49.678;24.560;2022-10-15T13:37:37;98507.22;;;16.82;52.16
45327;BME280;31062;49.678;24.560;2022-10-15T13:40:06;98527.09;;;16.62;52.46
45327;BME280;31062;49.678;24.560;2022-10-15T13:42:34;98367.31;;;15.73;52.60
45327;BME280;31062;49.678;24.560;2022-10-15T13:45:02;98524.75;;;16.82;53.03
45327;BME280;31062;49.678;24.560;2022-10-15T13:47:34;98531.09;;;16.83;53.32
45327;BME280;31062;49.678;24.560;2022-10-15T13:55:43;98357.47;;;15.60;53.01
45327;BME280;31062;49.678;24.560;2022-10-15T13:58:18;98407.03;;;15.95;53.05
45327;BME280;31062;49.678;24.560;2022-10-15T14:00:56;98455.25;;;16.30;53.87
45327;BME280;31062;49.678;24.560;2022-10-15T14:05:53;98377.50;;;15.68;53.36
45327;BME280;31062;49.678;24.560;2022-10-15T14:10:48;98378.72;;;15.65;54.31
45327;BME280;31062;49.678;24.560;2022-10-15T14:13:16;98530.91;;;16.67;54.31
45327;BME280;31062;49.678;24.560;2022-10-15T14:15:47;98555.59;;;16.70;54.21
45327;BME280;31062;49.678;24.560;2022-10-15T14:18:27;98379.81;;;15.60;54.35
45327;BME280;31062;49.678;24.560;2022-10-15T14:20:54;98515.56;;;16.56;54.64
45327;BME280;31062;49.678;24.560;2022-10-15T14:23:23;98388.22;;;15.60;55.30
45327;BME280;31062;49.678;24.560;2022-10-15T14:25:52;98423.44;;;15.77;55.59
45327;BME280;31062;49.678;24.560;2022-10-15T14:28:21;98420.16;;;15.69;55.42
45327;BME280;31062;49.678;24.560;2022-10-15T14:30:50;98371.53;;;15.39;55.71
45327;BME280;31062;49.678;24.560;2022-10-15T14:38:35;98529.69;;;16.35;56.67
45327;BME280;31062;49.678;24.560;2022-10-15T14:41:05;98516.31;;;16.22;56.72
45327;BME280;31062;49.678;24.560;2022-10-15T14:43:43;98542.09;;;16.32;56.87
45327;BME280;31062;49.678;24.560;2022-10-15T14:46:16;98356.53;;;14.99;56.99
45327;BME280;31062;49.678;24.560;2022-10-15T14:48:45;98528.81;;;16.21;57.42
45327;BME280;31062;49.678;24.560;2022-10-15T14:51:22;98544.03;;;16.18;57.47
45327;BME280;31062;49.678;24.560;2022-10-15T14:53:51;98516.66;;;16.05;57.72
45327;BME280;31062;49.678;24.560;2022-10-15T14:56:22;98460.72;;;15.58;57.99
45327;BME280;31062;49.678;24.560;2022-10-15T14:58:53;98410.97;;;15.22;58.77
45327;BME280;31062;49.678;24.560;2022-10-15T15:01:22;98454.50;;;15.48;58.80
45327;BME280;31062;49.678;24.560;2022-10-15T15:03:54;98372.78;;;14.91;59.05
45327;BME280;31062;49.678;24.560;2022-10-15T15:06:21;98389.53;;;14.91;59.07
45327;BME280;31062;49.678;24.560;2022-10-15T15:08:48;98548.03;;;15.91;58.77
45327;BME280;31062;49.678;24.560;2022-10-15T15:11:20;98550.09;;;15.91;58.81
45327;BME280;31062;49.678;24.560;2022-10-15T15:13:48;98477.28;;;15.33;59.19
45327;BME280;31062;49.678;24.560;2022-10-15T15:16:16;98418.91;;;14.92;59.37
45327;BME280;31062;49.678;24.560;2022-10-15T15:18:45;98546.81;;;15.83;59.65
45327;BME280;31062;49.678;24.560;2022-10-15T15:21:23;98543.72;;;15.67;60.05
45327;BME280;31062;49.678;24.560;2022-10-15T15:23:51;98408.97;;;14.68;60.73
45327;BME280;31062;49.678;24.560;2022-10-15T15:26:18;98556.81;;;15.53;61.46
45327;BME280;31062;49.678;24.560;2022-10-15T15:28:45;98594.19;;;15.48;61.95
45327;BME280;31062;49.678;24.560;2022-10-15T15:31:15;98532.56;;;15.01;62.18
45327;BME280;31062;49.678;24.560;2022-10-15T15:33:44;98555.00;;;15.25;62.63
45327;BME280;31062;49.678;24.560;2022-10-15T15:36:16;98561.50;;;15.18;63.05
45327;BME280;31062;49.678;24.560;2022-10-15T15:38:49;98547.56;;;14.96;63.27